Terminal Aerodrome Forecast
Issued by NWS

Home | Current Version | Previous Version | Text Only | Print | Product List | Glossary Off
Versions: 1 2 3 4 5 6 7 8 9 10 11 12 13 14 15 16 17

000
FTUS43 KMPX 211100
TAFAXN
TAF
KAXN 211140Z 2112/2212 17014KT 5SM BR OVC004
     FM212100 14013KT 6SM BR OVC007
     FM220300 13015KT 3SM -DZ BR OVC004=

USA.gov is the U.S. government's official web portal to all federal, state and local government web resources and services.